Time;durP1;ratioP1;P1;durP2;ratioP2;P2;SDS_P1;SDS_P2;PMS_P1;PMS_P2;Temp;Humidity;BMP_temperature;BMP_pressure;BME280_temperature;BME280_humidity;BME280_pressure;Samples;Min_cycle;Max_cycle;Signal;HPM_P1;HPM_P2
2022/08/17 00:01:02;;;;;;;13.50;8.88;;;;;;;25.42;44.29;99890.94;5073547;28;20048;-75
2022/08/17 00:03:40;;;;;;;12.98;8.25;;;;;;;25.43;44.22;99881.75;5074067;28;20025;-75
2022/08/17 00:06:14;;;;;;;11.70;8.32;;;;;;;25.41;44.21;99883.84;5076507;28;20021;-75
2022/08/17 00:08:52;;;;;;;14.27;8.45;;;;;;;25.41;44.12;99880.25;5086908;28;20089;-75
2022/08/17 00:11:22;;;;;;;10.07;8.32;;;;;;;25.36;44.25;99883.59;5086301;28;20238;-73
2022/08/17 00:13:53;;;;;;;11.70;7.83;;;;;;;25.35;44.49;99878.41;5087038;28;20028;-75
2022/08/17 00:16:24;;;;;;;9.23;8.23;;;;;;;25.33;44.51;99881.31;5087109;28;20266;-75
2022/08/17 00:18:50;;;;;;;9.80;8.47;;;;;;;25.26;44.45;99881.31;5087069;28;20255;-74
2022/08/17 00:21:18;;;;;;;12.75;8.30;;;;;;;25.22;44.56;99882.75;5087030;28;20386;-74
2022/08/17 00:23:45;;;;;;;12.50;8.57;;;;;;;25.19;44.89;99879.66;5086840;28;20020;-73
2022/08/17 00:26:11;;;;;;;13.77;10.07;;;;;;;25.16;44.78;99885.47;5086976;28;20016;-74
2022/08/17 00:28:38;;;;;;;14.48;9.85;;;;;;;25.14;44.83;99882.97;5086903;28;20023;-74
2022/08/17 00:31:06;;;;;;;12.77;9.50;;;;;;;25.14;44.70;99891.09;5086880;28;20020;-73
2022/08/17 00:33:32;;;;;;;11.15;8.80;;;;;;;25.13;44.67;99890.28;5086849;28;20020;-74
2022/08/17 00:35:58;;;;;;;14.60;10.20;;;;;;;25.18;44.85;99888.81;5086945;28;20024;-75
2022/08/17 00:38:25;;;;;;;14.77;10.55;;;;;;;25.17;44.63;99881.72;5086809;28;20028;-74
2022/08/17 00:40:55;;;;;;;13.73;9.80;;;;;;;25.12;44.56;99885.91;5090290;28;20074;-75
2022/08/17 00:43:40;;;;;;;14.55;9.40;;;;;;;25.07;44.83;99874.84;5090286;28;20205;-76
2022/08/17 00:46:17;;;;;;;16.27;10.18;;;;;;;24.97;44.97;99875.28;5090203;28;20021;-75
2022/08/17 00:48:44;;;;;;;12.13;9.20;;;;;;;24.89;44.95;99880.91;5090263;28;20024;-76
2022/08/17 00:51:40;;;;;;;14.55;10.07;;;;;;;24.87;45.09;99877.56;5090180;28;20025;-74
2022/08/17 00:54:25;;;;;;;17.15;10.88;;;;;;;24.87;45.12;99865.88;5090419;28;20224;-75
2022/08/17 00:56:58;;;;;;;13.07;9.57;;;;;;;24.83;45.38;99869.03;5090181;28;20025;-74
2022/08/17 00:59:35;;;;;;;14.18;10.27;;;;;;;24.83;45.36;99865.47;5090062;28;20020;-75
2022/08/17 01:02:01;;;;;;;11.15;8.77;;;;;;;24.79;45.15;99869.63;5090014;28;20016;-76
2022/08/17 01:04:28;;;;;;;14.68;9.93;;;;;;;24.81;45.47;99867.56;5089941;28;20031;-73
2022/08/17 01:06:55;;;;;;;22.08;11.23;;;;;;;24.80;45.33;99871.28;5089704;28;20228;-74
2022/08/17 01:09:21;;;;;;;11.38;8.48;;;;;;;24.77;45.56;99867.13;5089892;28;20135;-74
2022/08/17 01:11:50;;;;;;;12.35;8.65;;;;;;;24.72;45.55;99869.63;5086091;28;20078;-75
2022/08/17 01:14:19;;;;;;;14.73;9.27;;;;;;;24.70;45.77;99860.91;5069681;28;20024;-76
2022/08/17 01:16:46;;;;;;;17.33;9.45;;;;;;;24.64;45.91;99865.19;5069721;28;20024;-74
2022/08/17 01:19:25;;;;;;;16.92;9.48;;;;;;;24.64;45.59;99865.19;5069566;28;20025;-75
2022/08/17 01:21:59;;;;;;;13.40;9.25;;;;;;;24.64;45.68;99861.69;5069600;28;20088;-75
2022/08/17 01:24:26;;;;;;;11.98;8.45;;;;;;;24.63;45.84;99860.00;5069514;28;20092;-74
2022/08/17 01:26:52;;;;;;;11.32;9.75;;;;;;;24.63;46.01;99849.19;5069561;28;20133;-74
2022/08/17 01:29:19;;;;;;;10.50;8.18;;;;;;;24.65;45.84;99858.75;5069388;28;20021;-74
2022/08/17 01:31:49;;;;;;;11.15;8.25;;;;;;;24.66;45.68;99852.31;5069300;28;20020;-75
2022/08/17 01:34:16;;;;;;;15.13;9.82;;;;;;;24.67;45.57;99853.97;5072278;28;20035;-75
2022/08/17 01:36:45;;;;;;;35.45;9.35;;;;;;;24.65;45.79;99858.75;5084363;28;20032;-74
2022/08/17 01:39:22;;;;;;;17.50;10.43;;;;;;;24.65;45.74;99853.34;5089264;28;20020;-74
2022/08/17 01:41:52;;;;;;;12.18;7.95;;;;;;;24.64;45.57;99853.56;5089325;28;20151;-75
2022/08/17 01:44:18;;;;;;;15.15;10.15;;;;;;;24.63;45.94;99860.00;5083564;28;20017;-75
2022/08/17 01:46:43;;;;;;;11.18;9.57;;;;;;;24.61;45.92;99852.09;5069107;28;20024;-76
2022/08/17 01:49:10;;;;;;;15.27;10.80;;;;;;;24.62;45.53;99864.59;5069879;28;20138;-74
2022/08/17 01:51:36;;;;;;;16.60;9.90;;;;;;;24.57;45.81;99856.25;5072858;28;20218;-75
2022/08/17 01:54:14;;;;;;;17.05;12.10;;;;;;;24.58;46.07;99857.06;5068955;28;20025;-75
2022/08/17 01:56:44;;;;;;;20.35;12.20;;;;;;;24.53;46.12;99855.84;5068973;28;20084;-75
2022/08/17 01:59:10;;;;;;;17.77;13.18;;;;;;;24.43;45.98;99860.78;5068896;28;20037;-74
2022/08/17 02:01:36;;;;;;;17.75;12.27;;;;;;;24.35;46.13;99851.00;5074991;28;20130;-75
2022/08/17 02:04:03;;;;;;;18.02;12.30;;;;;;;24.32;46.53;99848.72;5070188;28;20044;-75
2022/08/17 02:06:32;;;;;;;18.75;11.88;;;;;;;24.25;46.22;99850.56;5085392;28;20016;-74
2022/08/17 02:08:58;;;;;;;18.63;12.30;;;;;;;24.21;46.29;99847.44;5088540;28;20040;-75
2022/08/17 02:11:23;;;;;;;18.42;11.98;;;;;;;24.16;46.41;99854.50;5088649;28;20062;-74
2022/08/17 02:13:50;;;;;;;15.25;12.02;;;;;;;24.15;46.62;99848.22;5088584;28;20021;-74
2022/08/17 02:16:16;;;;;;;17.92;11.68;;;;;;;24.14;46.60;99849.25;5086123;28;20083;-74
2022/08/17 02:18:42;;;;;;;20.98;10.93;;;;;;;24.14;46.80;99851.97;5086126;28;20165;-76
2022/08/17 02:21:08;;;;;;;15.18;11.10;;;;;;;24.15;46.73;99847.41;5087635;28;20026;-76
2022/08/17 02:23:39;;;;;;;13.55;10.32;;;;;;;24.18;46.45;99847.00;5088367;28;20039;-74
2022/08/17 02:26:05;;;;;;;16.75;10.43;;;;;;;24.17;46.73;99840.75;5087585;28;20047;-74
2022/08/17 02:28:31;;;;;;;15.60;10.18;;;;;;;24.17;46.64;99850.75;5085178;28;20086;-75
2022/08/17 02:31:02;;;;;;;19.25;10.52;;;;;;;24.15;46.72;99853.63;5086593;28;20020;-74
2022/08/17 02:33:28;;;;;;;17.02;9.45;;;;;;;24.14;46.65;99849.25;5088047;28;20035;-75
2022/08/17 02:35:53;;;;;;;12.27;8.68;;;;;;;24.19;46.66;99854.09;5088213;28;20039;-75
2022/08/17 02:38:19;;;;;;;12.75;9.45;;;;;;;24.19;46.82;99852.19;5073772;28;20080;-76
2022/08/17 02:40:44;;;;;;;10.23;8.27;;;;;;;24.25;46.11;99853.25;5072917;28;20087;-74
2022/08/17 02:43:10;;;;;;;13.57;7.75;;;;;;;24.28;46.35;99857.41;5068032;28;20032;-75
2022/08/17 02:45:35;;;;;;;15.05;8.75;;;;;;;24.29;46.31;99854.53;5067973;28;20250;-75
2022/08/17 02:48:02;;;;;;;13.18;7.30;;;;;;;24.32;46.08;99859.53;5068025;28;20032;-74
2022/08/17 02:50:28;;;;;;;12.20;8.32;;;;;;;24.38;46.09;99860.59;5073489;28;20013;-73
2022/08/17 02:52:54;;;;;;;12.82;7.47;;;;;;;24.40;45.79;99863.94;5067804;28;20017;-74
2022/08/17 02:55:24;;;;;;;10.95;7.45;;;;;;;24.40;45.95;99845.00;5067798;28;20179;-76
2022/08/17 02:57:50;;;;;;;13.40;7.93;;;;;;;24.41;45.91;99862.03;5087932;28;20130;-76
2022/08/17 03:00:21;;;;;;;15.80;7.82;;;;;;;24.41;45.69;99851.22;5077867;28;20021;-75
2022/08/17 03:02:47;;;;;;;11.07;7.55;;;;;;;24.39;45.58;99854.16;5067148;28;20156;-74
2022/08/17 03:05:16;;;;;;;9.27;7.60;;;;;;;24.41;45.57;99852.03;5067636;28;20032;-76
2022/08/17 03:07:42;;;;;;;11.07;7.75;;;;;;;24.41;45.98;99851.22;5080720;28;20180;-74
2022/08/17 03:10:08;;;;;;;10.02;7.13;;;;;;;24.43;45.89;99854.56;5083381;28;20028;-75
2022/08/17 03:12:37;;;;;;;10.60;7.53;;;;;;;24.43;45.84;99849.97;5087770;28;20126;-74
2022/08/17 03:15:05;;;;;;;10.65;7.47;;;;;;;24.48;45.85;99846.69;5080593;28;20036;-75
2022/08/17 03:17:31;;;;;;;9.95;6.63;;;;;;;24.50;45.56;99847.28;5087561;28;20020;-74
2022/08/17 03:19:57;;;;;;;11.63;7.07;;;;;;;24.53;45.33;99853.13;5078136;28;20388;-76
2022/08/17 03:22:23;;;;;;;12.15;7.32;;;;;;;24.52;45.22;99853.31;5067402;28;20033;-76
2022/08/17 03:24:49;;;;;;;13.32;8.63;;;;;;;24.47;45.75;99856.66;5067297;28;20323;-76
2022/08/17 03:27:14;;;;;;;8.40;6.55;;;;;;;24.46;45.36;99846.03;5079600;28;20024;-76
2022/08/17 03:29:40;;;;;;;10.30;6.85;;;;;;;24.47;45.81;99853.94;5082125;28;20249;-74
2022/08/17 03:32:13;;;;;;;14.60;8.55;;;;;;;24.50;45.45;99849.97;5067177;28;20023;-74
2022/08/17 03:34:39;;;;;;;13.70;7.80;;;;;;;24.50;45.75;99847.28;5067137;28;20071;-74
2022/08/17 03:37:04;;;;;;;10.98;8.20;;;;;;;24.50;45.69;99845.44;5077770;28;20028;-78
2022/08/17 03:39:30;;;;;;;12.65;9.25;;;;;;;24.53;45.33;99852.28;5084210;28;20027;-73
2022/08/17 03:42:15;;;;;;;7.85;6.97;;;;;;;24.55;45.48;99847.50;5067288;28;20278;-75
2022/08/17 03:44:40;;;;;;;11.27;8.73;;;;;;;24.57;45.26;99841.88;5068721;28;20114;-75
2022/08/17 03:58:03;;;;;;;15.10;11.55;;;;;;;24.82;44.63;99858.41;5087312;28;20053;-76
2022/08/17 04:00:28;;;;;;;18.20;12.68;;;;;;;24.83;45.08;99860.91;5085469;28;20021;-73
2022/08/17 04:02:54;;;;;;;22.70;16.30;;;;;;;24.86;44.77;99859.66;5087218;28;20020;-75
2022/08/17 04:05:20;;;;;;;23.35;15.32;;;;;;;24.89;44.86;99858.41;5087021;28;20081;-74
2022/08/17 04:07:45;;;;;;;20.88;14.38;;;;;;;24.89;44.73;99845.72;5086883;28;20033;-76
2022/08/17 04:10:12;;;;;;;20.58;14.68;;;;;;;24.91;44.47;99857.16;5081952;28;20088;-74
2022/08/17 04:12:51;;;;;;;23.55;16.42;;;;;;;24.95;44.76;99852.16;5068591;28;20122;-74
2022/08/17 04:15:17;;;;;;;30.67;19.63;;;;;;;24.97;44.71;99853.63;5074665;28;20043;-75
2022/08/17 04:17:44;;;;;;;28.05;20.10;;;;;;;24.96;44.63;99848.41;5080579;28;20051;-74
2022/08/17 04:20:15;;;;;;;27.42;19.55;;;;;;;24.85;44.45;99846.34;5078059;28;20063;-74
2022/08/17 04:22:57;;;;;;;;;;;;;;;24.79;44.67;99859.66;5071335;28;20071;-75
2022/08/17 04:25:23;;;;;;;35.40;24.05;;;;;;;24.80;44.75;99850.50;5080124;28;19908;-75
2022/08/17 04:27:48;;;;;;;35.50;27.27;;;;;;;24.80;44.38;99849.66;5090704;28;20244;-75
2022/08/17 04:30:14;;;;;;;36.97;26.55;;;;;;;24.79;44.56;99845.28;5078982;28;20169;-75
2022/08/17 04:32:57;;;;;;;35.55;26.35;;;;;;;24.78;44.47;99846.31;5070437;28;20059;-73
2022/08/17 04:35:26;;;;;;;36.33;25.75;;;;;;;24.83;44.55;99851.94;5079020;28;20226;-76
2022/08/17 04:37:52;;;;;;;38.78;26.88;;;;;;;24.88;44.29;99852.16;5070439;28;20059;-75
2022/08/17 04:43:07;;;;;;;41.85;30.23;;;;;;;25.03;44.35;99856.53;5070371;28;20066;-74
2022/08/17 04:45:37;;;;;;;39.70;29.70;;;;;;;25.09;44.13;99847.56;5078551;28;20029;-74
2022/08/17 04:48:03;;;;;;;36.13;29.27;;;;;;;25.14;43.74;99847.78;5071731;28;20082;-74
2022/08/17 04:50:28;;;;;;;44.22;32.67;;;;;;;25.15;44.12;99838.63;5072376;28;20141;-75
2022/08/17 04:52:54;;;;;;;48.78;32.15;;;;;;;25.22;43.72;99842.13;5070078;28;20161;-75
2022/08/17 04:55:20;;;;;;;45.83;31.05;;;;;;;25.33;43.51;99843.38;5080222;28;20253;-74
2022/08/17 04:57:45;;;;;;;45.95;33.70;;;;;;;25.43;42.95;99837.56;5080946;28;20096;-74
2022/08/17 05:00:11;;;;;;;48.95;33.35;;;;;;;25.55;42.91;99835.88;5075056;28;20028;-73
2022/08/17 05:02:49;;;;;;;51.35;34.85;;;;;;;25.73;42.49;99837.06;5070004;28;20189;-74
2022/08/17 05:05:30;;;;;;;44.33;34.53;;;;;;;25.84;41.89;99841.00;5076603;28;20028;-75
2022/08/17 05:07:58;;;;;;;44.97;33.90;;;;;;;25.98;41.76;99837.19;5087861;28;20040;-73
2022/08/17 05:10:29;;;;;;;44.40;34.42;;;;;;;26.14;41.33;99833.19;5089886;28;20077;-74
2022/08/17 05:13:15;;;;;;;42.85;32.22;;;;;;;26.25;41.35;99828.97;5089776;28;20233;-73
2022/08/17 05:15:42;;;;;;;40.25;31.40;;;;;;;26.41;41.06;99833.03;5083353;28;20039;-73
2022/08/17 05:18:08;;;;;;;43.53;32.08;;;;;;;26.60;40.87;99824.97;5089732;28;20035;-73
2022/08/17 05:20:35;;;;;;;44.25;32.58;;;;;;;26.80;40.67;99822.13;5070408;28;20017;-72
2022/08/17 05:23:05;;;;;;;38.10;30.20;;;;;;;27.01;40.16;99833.69;5069573;28;20024;-73
2022/08/17 05:25:36;;;;;;;42.17;31.98;;;;;;;27.14;40.07;99824.56;5074396;28;20062;-73
2022/08/17 05:28:03;;;;;;;48.50;31.77;;;;;;;27.26;39.51;99812.75;5104139;28;20020;-72
2022/08/17 05:30:28;;;;;;;44.50;29.83;;;;;;;27.33;39.78;99817.28;5086810;28;20134;-74
2022/08/17 05:33:06;;;;;;;44.05;31.88;;;;;;;27.38;39.35;99817.44;5069254;28;20032;-73
2022/08/17 05:35:34;;;;;;;41.83;30.20;;;;;;;27.42;39.21;99821.38;5081424;28;20016;-72
2022/08/17 05:38:00;;;;;;;43.13;30.27;;;;;;;27.37;39.21;99816.63;5089202;28;20071;-72
2022/08/17 05:40:27;;;;;;;40.50;27.98;;;;;;;27.31;39.57;99814.78;5089252;28;20024;-75
2022/08/17 05:43:13;;;;;;;38.08;28.40;;;;;;;27.26;39.63;99812.75;5075872;28;20040;-72
2022/08/17 05:46:00;;;;;;;38.03;28.27;;;;;;;27.38;39.59;99817.44;5071838;28;20033;-73
2022/08/17 05:48:27;;;;;;;39.28;29.25;;;;;;;27.47;39.26;99815.28;5065080;28;20110;-72
2022/08/17 05:51:02;;;;;;;34.50;26.90;;;;;;;27.52;39.10;99812.72;5069082;28;20059;-72
2022/08/17 05:53:46;;;;;;;38.05;25.88;;;;;;;27.55;39.05;99815.00;5068858;28;20257;-72
2022/08/17 05:56:42;;;;;;;37.25;26.58;;;;;;;27.37;39.24;99811.19;5079573;28;20099;-72
2022/08/17 05:59:42;;;;;;;35.08;25.35;;;;;;;27.24;39.40;99811.31;5083853;28;20036;-72
2022/08/17 06:02:40;;;;;;;40.47;25.35;;;;;;;27.16;39.64;99811.59;5058004;28;20044;-72
2022/08/17 06:05:13;;;;;;;40.58;24.80;;;;;;;26.97;40.14;99808.88;5067814;28;20035;-72
2022/08/17 06:07:58;;;;;;;41.08;25.17;;;;;;;26.85;40.31;99816.88;5077116;28;20040;-72
2022/08/17 06:10:46;;;;;;;32.83;23.55;;;;;;;26.78;40.30;99806.06;5068524;28;20031;-72
2022/08/17 06:13:21;;;;;;;38.08;23.42;;;;;;;26.76;40.40;99805.44;5069595;28;20028;-72
2022/08/17 06:16:14;;;;;;;35.45;23.73;;;;;;;26.75;40.30;99811.09;5083335;28;20020;-72
2022/08/17 06:18:58;;;;;;;31.65;22.92;;;;;;;26.72;40.46;99812.34;5088292;28;20034;-72
2022/08/17 06:21:26;;;;;;;35.30;22.35;;;;;;;26.67;40.48;99809.50;5070102;28;20042;-71
2022/08/17 06:24:03;;;;;;;38.40;22.60;;;;;;;26.62;40.55;99809.31;5085594;28;20032;-75
2022/08/17 06:26:32;;;;;;;38.90;20.75;;;;;;;26.59;40.74;99812.47;5069126;28;20245;-75
2022/08/17 06:29:02;;;;;;;25.58;20.65;;;;;;;26.58;40.68;99816.22;5083735;28;20031;-75
2022/08/17 06:31:34;;;;;;;28.58;19.38;;;;;;;26.59;40.74;99818.72;5088265;28;20077;-74
2022/08/17 06:34:05;;;;;;;26.98;19.10;;;;;;;26.61;40.56;99807.66;5087407;28;20044;-72
2022/08/17 06:36:52;;;;;;;;;;;;;;;26.57;41.13;99809.13;5071341;28;20079;-72
2022/08/17 06:39:43;;;;;;;33.63;19.40;;;;;;;26.59;40.88;99805.16;5069560;28;19896;-74
2022/08/17 06:42:39;;;;;;;30.27;17.52;;;;;;;26.44;41.03;99808.19;5068066;28;20122;-74
2022/08/17 06:45:14;;;;;;;25.45;16.08;;;;;;;26.37;41.23;99807.41;5071305;28;20019;-74
2022/08/17 06:47:54;;;;;;;30.98;17.27;;;;;;;26.43;41.35;99813.84;5082980;28;20028;-74
2022/08/17 06:50:35;;;;;;;29.60;15.73;;;;;;;26.46;41.26;99805.25;5068061;28;20043;-74
2022/08/17 06:53:39;;;;;;;24.27;14.75;;;;;;;26.52;40.98;99808.97;5067748;28;20020;-74
2022/08/17 06:56:10;;;;;;;30.10;15.63;;;;;;;26.52;41.21;99814.41;5056614;28;20032;-74
2022/08/17 06:58:38;;;;;;;23.48;13.25;;;;;;;26.51;40.96;99810.84;5074945;28;20082;-74
2022/08/17 07:01:28;;;;;;;22.38;13.07;;;;;;;26.54;41.64;99809.59;5067761;28;20189;-74
2022/08/17 07:04:02;;;;;;;21.83;12.45;;;;;;;26.57;41.44;99804.56;5069155;28;20016;-74
2022/08/17 07:09:56;;;;;;;20.05;10.63;;;;;;;26.63;40.97;99805.56;5087630;28;20039;-74
2022/08/17 07:12:26;;;;;;;25.25;11.10;;;;;;;26.66;40.76;99810.53;5086479;28;20184;-73
2022/08/17 07:15:04;;;;;;;21.00;10.52;;;;;;;26.64;40.63;99801.78;5083668;28;20141;-74
2022/08/17 07:17:32;;;;;;;25.15;10.23;;;;;;;26.66;40.60;99799.69;5087524;28;20085;-72
2022/08/17 07:20:07;;;;;;;23.75;10.38;;;;;;;26.67;40.29;99795.91;5078421;28;20016;-72
2022/08/17 07:22:38;;;;;;;15.38;9.80;;;;;;;26.68;40.46;99792.16;5067545;28;20028;-70
2022/08/17 07:25:10;;;;;;;14.15;7.88;;;;;;;26.70;39.87;99803.59;5067433;28;20252;-72
2022/08/17 07:27:44;;;;;;;14.25;9.32;;;;;;;26.71;39.69;99804.44;5072856;28;20016;-72
2022/08/17 07:30:16;;;;;;;21.17;9.18;;;;;;;26.69;39.80;99804.66;5087403;28;20078;-72
2022/08/17 07:33:22;;;;;;;15.68;9.73;;;;;;;26.68;39.65;99792.16;5087269;28;20020;-72
2022/08/17 07:35:48;;;;;;;27.45;9.45;;;;;;;26.66;39.84;99786.94;5065594;28;20087;-72
2022/08/17 07:38:22;;;;;;;16.63;8.93;;;;;;;26.67;39.78;99793.22;5076404;28;20146;-74
2022/08/17 07:40:56;;;;;;;19.90;8.75;;;;;;;26.68;39.86;99785.88;5079159;28;20232;-74
2022/08/17 07:43:26;;;;;;;19.25;8.82;;;;;;;26.67;40.02;99782.34;5067224;28;20192;-74
2022/08/17 07:48:48;;;;;;;18.40;8.77;;;;;;;26.68;39.93;99780.44;5073538;28;20020;-75
2022/08/17 07:51:54;;;;;;;16.65;8.55;;;;;;;26.70;40.09;99783.78;5102995;28;20012;-74
2022/08/17 07:54:27;;;;;;;18.92;8.85;;;;;;;26.73;39.72;99769.78;5086174;28;20082;-74
2022/08/17 07:56:56;;;;;;;17.35;8.68;;;;;;;26.73;39.27;99769.78;5071213;28;20099;-74
2022/08/17 07:59:35;;;;;;;17.50;8.77;;;;;;;26.74;39.35;99771.44;5071163;28;20079;-74
2022/08/17 08:02:14;;;;;;;15.02;8.32;;;;;;;26.76;39.49;99775.59;5071107;28;20024;-74
2022/08/17 08:04:46;;;;;;;13.70;7.63;;;;;;;26.79;39.38;99779.75;5077285;28;20035;-74
2022/08/17 08:07:22;;;;;;;13.07;7.28;;;;;;;26.80;39.41;99776.84;5086468;28;20195;-74
2022/08/17 08:10:29;;;;;;;17.25;7.88;;;;;;;26.82;39.01;99779.31;5090940;28;20032;-74
2022/08/17 08:13:24;;;;;;;15.20;7.60;;;;;;;26.83;38.96;99766.59;5089486;28;20095;-74
2022/08/17 08:16:12;;;;;;;17.02;7.60;;;;;;;26.86;39.13;99774.28;5078311;28;20230;-74
2022/08/17 08:18:44;;;;;;;13.77;6.85;;;;;;;26.90;38.54;99775.50;5070854;28;20049;-73
2022/08/17 08:21:24;;;;;;;14.15;7.38;;;;;;;26.89;38.66;99771.13;5077983;28;20103;-74
2022/08/17 08:23:57;;;;;;;14.65;6.55;;;;;;;26.91;38.71;99764.41;5070587;28;20126;-74
2022/08/17 08:26:36;;;;;;;12.82;6.97;;;;;;;26.92;38.31;99774.22;5070631;28;20052;-74
2022/08/17 08:29:42;;;;;;;12.98;6.95;;;;;;;26.93;38.28;99775.06;5076239;28;20033;-73
2022/08/17 08:32:27;;;;;;;13.23;6.47;;;;;;;26.93;37.78;99766.91;5076722;28;20028;-73
2022/08/17 08:35:30;;;;;;;17.80;6.57;;;;;;;26.94;37.67;99765.84;5070338;28;20248;-71
2022/08/17 08:38:16;;;;;;;15.30;5.43;;;;;;;26.96;37.63;99769.19;5069483;28;20155;-73
2022/08/17 08:41:12;;;;;;;12.40;7.07;;;;;;;26.97;37.90;99776.28;5086709;28;20136;-73
2022/08/17 08:43:57;;;;;;;9.75;5.55;;;;;;;27.00;37.86;99764.94;5090330;28;20044;-74
2022/08/17 08:46:44;;;;;;;8.88;5.50;;;;;;;27.02;37.80;99757.41;5090389;28;20044;-73
2022/08/17 08:49:37;;;;;;;10.48;5.30;;;;;;;27.05;37.74;99758.88;5089149;28;20245;-73
2022/08/17 08:52:34;;;;;;;11.32;6.45;;;;;;;27.06;37.99;99760.50;5070045;28;20096;-74
2022/08/17 08:55:11;;;;;;;11.10;5.13;;;;;;;27.08;37.90;99761.09;5066959;28;20032;-73
2022/08/17 08:57:47;;;;;;;9.93;5.38;;;;;;;27.09;37.77;99758.19;5088873;28;20087;-71
2022/08/17 09:00:17;;;;;;;9.25;4.32;;;;;;;27.11;37.33;99763.38;5088926;28;20042;-73
2022/08/17 09:03:21;;;;;;;6.88;4.10;;;;;;;27.13;36.96;99749.59;5079039;28;20025;-74
2022/08/17 09:05:52;;;;;;;6.53;3.92;;;;;;;27.13;36.68;99753.13;5075956;28;20024;-73
2022/08/17 09:08:18;;;;;;;9.57;3.63;;;;;;;27.13;36.95;99752.31;5089292;28;20158;-72
2022/08/17 09:10:43;;;;;;;11.20;4.03;;;;;;;27.13;37.00;99757.75;5081854;28;20032;-74
2022/08/17 09:13:42;;;;;;;12.25;4.13;;;;;;;27.15;36.97;99747.47;5089679;28;20225;-73
2022/08/17 09:16:15;;;;;;;11.60;3.53;;;;;;;27.14;37.21;99746.66;5072008;28;20218;-74
2022/08/17 09:18:50;;;;;;;9.65;3.90;;;;;;;27.16;37.36;99747.25;5083964;28;20028;-73
2022/08/17 09:21:39;;;;;;;5.35;4.05;;;;;;;27.16;37.64;99744.53;5089607;28;20020;-73
2022/08/17 09:24:17;;;;;;;6.25;3.47;;;;;;;27.16;37.61;99743.69;5082049;28;20024;-73
2022/08/17 09:27:10;;;;;;;11.57;4.07;;;;;;;27.17;37.20;99748.06;5089567;28;20044;-71
2022/08/17 09:29:43;;;;;;;8.95;3.97;;;;;;;27.18;37.36;99738.88;5083231;28;20050;-70
2022/08/17 09:32:20;;;;;;;6.57;3.75;;;;;;;27.19;37.67;99735.09;5068515;28;20091;-73
2022/08/17 09:34:53;;;;;;;8.68;3.65;;;;;;;27.19;37.65;99732.38;5076746;28;20020;-71
2022/08/17 09:37:32;;;;;;;8.73;3.65;;;;;;;27.18;37.72;99736.16;5085259;28;20024;-71
2022/08/17 09:40:19;;;;;;;9.05;4.20;;;;;;;27.18;37.74;99739.72;5074924;28;20031;-72
2022/08/17 09:42:49;;;;;;;14.90;3.88;;;;;;;27.20;37.63;99734.03;5089255;28;20027;-72
2022/08/17 09:45:30;;;;;;;7.83;4.00;;;;;;;27.22;37.42;99734.66;5081494;28;20021;-73
2022/08/17 09:48:07;;;;;;;5.80;3.08;;;;;;;27.20;38.01;99745.75;5072198;28;20285;-72
2022/08/17 09:50:54;;;;;;;16.77;4.78;;;;;;;27.21;37.61;99733.00;5081455;28;20033;-74
2022/08/17 09:53:20;;;;;;;5.90;3.35;;;;;;;27.22;37.48;99729.22;5068839;28;20035;-72
2022/08/17 09:56:05;;;;;;;8.93;3.67;;;;;;;27.22;37.86;99729.22;5080551;28;20024;-72
2022/08/17 09:59:02;;;;;;;6.38;3.90;;;;;;;27.22;37.43;99731.94;5088902;28;20031;-72
2022/08/17 10:01:42;;;;;;;6.03;3.40;;;;;;;27.23;37.17;99726.25;5087159;28;20024;-70
2022/08/17 10:04:29;;;;;;;5.67;3.20;;;;;;;27.27;37.15;99730.19;5088777;28;20026;-71
2022/08/17 10:07:21;;;;;;;8.55;3.63;;;;;;;27.26;37.00;99728.53;5088494;28;20380;-71
2022/08/17 10:10:11;;;;;;;7.78;3.85;;;;;;;27.25;37.16;99716.00;5071467;28;20096;-71
2022/08/17 10:13:22;;;;;;;7.93;5.40;;;;;;;27.27;37.32;99721.22;5079562;28;20020;-72
2022/08/17 10:15:58;;;;;;;8.48;5.60;;;;;;;27.26;37.32;99725.00;5076908;28;20040;-71
2022/08/17 10:18:51;;;;;;;15.10;6.70;;;;;;;27.27;37.28;99721.22;5088510;28;20024;-70
2022/08/17 10:27:10;;;;;;;9.68;5.05;;;;;;;27.31;37.07;99721.59;5068326;28;20032;-72
2022/08/17 10:29:45;;;;;;;11.20;4.70;;;;;;;27.33;36.83;99719.50;5068193;28;20028;-71
2022/08/17 10:32:17;;;;;;;9.85;5.60;;;;;;;27.36;36.75;99722.56;5068210;28;20025;-72
2022/08/17 10:34:46;;;;;;;18.85;4.72;;;;;;;27.38;36.79;99717.75;5072937;28;20028;-71
2022/08/17 10:37:41;;;;;;;8.88;3.58;;;;;;;27.40;36.46;99717.50;5071454;28;20086;-72
2022/08/17 10:40:16;;;;;;;13.93;4.38;;;;;;;27.39;36.79;99722.13;5076115;28;20036;-72
2022/08/17 10:42:45;;;;;;;9.40;4.03;;;;;;;27.40;36.85;99712.94;5068087;28;20296;-72
2022/08/17 10:45:17;;;;;;;8.68;4.20;;;;;;;27.41;36.99;99714.59;5068028;28;20029;-72
2022/08/17 10:47:58;;;;;;;8.18;3.50;;;;;;;27.42;36.68;99712.69;5067975;28;20017;-72
2022/08/17 10:50:54;;;;;;;7.55;3.88;;;;;;;27.42;36.62;99710.78;5071703;28;20009;-72
2022/08/17 10:53:32;;;;;;;8.55;3.60;;;;;;;27.44;37.07;99709.72;5068721;28;20028;-71
2022/08/17 10:56:13;;;;;;;5.53;3.42;;;;;;;27.48;36.61;99700.09;5083700;28;20234;-72
2022/08/17 10:58:56;;;;;;;11.02;4.28;;;;;;;27.49;36.53;99699.03;5087816;28;20035;-70
2022/08/17 11:01:44;;;;;;;5.50;3.50;;;;;;;27.50;36.33;99698.00;5078825;28;20023;-72
2022/08/17 11:05:00;;;;;;;8.90;4.20;;;;;;;27.49;36.46;99689.03;5059029;28;20032;-71
2022/08/17 11:07:57;;;;;;;6.70;3.97;;;;;;;27.47;36.94;99698.44;5061432;28;20241;-72
2022/08/17 11:10:38;;;;;;;17.60;5.63;;;;;;;27.46;37.25;99692.19;5084449;28;20024;-72
2022/08/17 11:13:20;;;;;;;15.20;5.43;;;;;;;27.48;37.37;99689.22;5087626;28;20087;-72
2022/08/17 11:16:11;;;;;;;9.07;4.10;;;;;;;27.50;36.49;99685.22;5087607;28;20026;-72
2022/08/17 11:18:45;;;;;;;11.15;4.63;;;;;;;27.55;36.08;99684.56;5085836;28;20028;-72
2022/08/17 11:21:23;;;;;;;7.95;4.53;;;;;;;27.58;35.95;99675.91;5080974;28;20028;-72
2022/08/17 11:24:04;;;;;;;9.57;4.15;;;;;;;27.61;35.98;99680.09;5078661;28;20032;-71
2022/08/17 11:26:35;;;;;;;13.45;4.30;;;;;;;27.62;35.52;99679.03;5067490;28;20024;-72
2022/08/17 11:29:08;;;;;;;6.78;4.18;;;;;;;27.64;36.04;99676.91;5067475;28;20160;-72
2022/08/17 11:31:38;;;;;;;10.25;4.88;;;;;;;27.65;36.09;99673.94;5067312;28;20044;-72
2022/08/17 11:34:28;;;;;;;12.68;4.82;;;;;;;27.66;35.74;99675.63;5068154;28;20025;-72
2022/08/17 11:37:19;;;;;;;11.35;5.07;;;;;;;27.67;35.66;99671.84;5067340;28;20037;-72
2022/08/17 11:40:04;;;;;;;7.53;4.38;;;;;;;27.67;35.79;99671.00;5067206;28;20040;-72
2022/08/17 11:42:52;;;;;;;11.80;4.85;;;;;;;27.66;35.56;99677.47;5067562;28;20078;-72
2022/08/17 11:45:32;;;;;;;13.30;5.65;;;;;;;27.66;35.47;99675.63;5067382;28;20031;-71
2022/08/17 11:51:34;;;;;;;16.45;5.35;;;;;;;27.69;35.37;99664.28;5081995;28;20080;-72
2022/08/17 11:54:06;;;;;;;10.48;5.07;;;;;;;27.71;35.06;99662.16;5070937;28;20201;-72
2022/08/17 11:56:40;;;;;;;12.80;5.93;;;;;;;27.72;35.13;99666.50;5076691;28;20043;-72
2022/08/17 11:59:35;;;;;;;10.45;5.82;;;;;;;27.71;35.01;99659.44;5087149;28;20020;-72
2022/08/17 12:02:03;;;;;;;10.27;5.78;;;;;;;27.69;35.17;99656.13;5087185;28;20241;-72
2022/08/17 12:04:34;;;;;;;10.02;5.30;;;;;;;27.71;34.59;99651.28;5087077;28;20024;-72
2022/08/17 12:07:05;;;;;;;8.20;5.07;;;;;;;27.72;34.44;99652.09;5086901;28;20082;-72
2022/08/17 12:09:37;;;;;;;9.82;5.63;;;;;;;27.74;34.75;99651.88;5087047;28;20030;-72
2022/08/17 12:12:11;;;;;;;6.30;5.05;;;;;;;27.75;34.66;99651.66;5087041;28;20024;-71
2022/08/17 12:14:39;;;;;;;10.68;5.90;;;;;;;27.76;34.51;99652.47;5087002;28;20020;-72
2022/08/17 12:17:05;;;;;;;9.88;5.32;;;;;;;27.79;34.53;99657.44;5087030;28;20109;-72
2022/08/17 12:19:32;;;;;;;13.07;5.47;;;;;;;27.79;34.79;99649.28;5086941;28;20020;-72
2022/08/17 12:22:17;;;;;;;11.65;5.68;;;;;;;27.80;34.67;99650.94;5087040;28;20016;-72
2022/08/17 12:24:55;;;;;;;7.90;4.97;;;;;;;27.80;34.85;99645.50;5087125;28;20028;-72
2022/08/17 12:27:30;;;;;;;16.15;5.00;;;;;;;27.80;34.88;99638.16;5083984;28;20039;-76
2022/08/17 12:29:57;;;;;;;8.68;5.13;;;;;;;27.84;34.78;99649.44;5085661;28;20016;-73